createdAt,value
2023-03-26T00:00:15.439Z,96523.48
2023-03-26T00:02:48.216Z,96527.13
2023-03-26T00:05:22.114Z,96526.08
2023-03-26T00:07:54.946Z,96530.27
2023-03-26T00:10:27.894Z,96526.95
2023-03-26T00:13:00.358Z,96529.90
2023-03-26T00:15:34.458Z,96530.24
2023-03-26T00:18:09.743Z,96528.83
2023-03-26T00:20:42.704Z,96528.09
2023-03-26T00:23:15.891Z,96528.42
2023-03-26T00:25:51.329Z,96534.87
2023-03-26T00:28:24.392Z,96529.17
2023-03-26T00:31:19.094Z,96526.13
2023-03-26T00:33:54.687Z,96528.05
2023-03-26T00:36:28.830Z,96523.27
2023-03-26T00:39:01.641Z,96520.45
2023-03-26T00:41:37.502Z,96517.30
2023-03-26T00:44:10.421Z,96522.35
2023-03-26T00:46:43.568Z,96525.20
2023-03-26T00:49:18.099Z,96526.38
2023-03-26T00:51:50.804Z,96521.67
2023-03-26T00:54:23.377Z,96517.36
2023-03-26T00:56:56.586Z,96514.13
2023-03-26T00:59:32.360Z,96513.83
2023-03-26T01:02:06.130Z,96511.27
2023-03-26T01:04:43.059Z,96519.25
2023-03-26T01:07:22.382Z,96512.60
2023-03-26T01:09:55.799Z,96509.27
2023-03-26T01:12:33.658Z,96513.48
2023-03-26T01:15:08.654Z,96510.52
2023-03-26T01:17:43.472Z,96509.59
2023-03-26T01:20:27.107Z,96510.34
2023-03-26T01:23:05.739Z,96507.05
2023-03-26T01:25:47.297Z,96503.23
2023-03-26T01:28:22.208Z,96502.80
2023-03-26T01:31:10.350Z,96502.81
2023-03-26T01:34:06.067Z,96498.88
2023-03-26T01:36:47.126Z,96502.61
2023-03-26T01:39:32.148Z,96501.04
2023-03-26T01:42:09.567Z,96497.45
2023-03-26T01:44:49.307Z,96493.98
2023-03-26T01:47:22.838Z,96495.16
2023-03-26T01:49:56.194Z,96495.75
2023-03-26T01:52:29.291Z,96494.40
2023-03-26T01:55:03.478Z,96493.81
2023-03-26T01:57:46.219Z,96489.33
2023-03-26T02:00:29.696Z,96482.52
2023-03-26T02:03:23.100Z,96481.67
2023-03-26T02:06:01.126Z,96478.14
2023-03-26T02:08:59.990Z,96467.25
2023-03-26T02:11:35.959Z,96465.88
2023-03-26T02:14:11.085Z,96464.08
2023-03-26T02:16:47.259Z,96463.17
2023-03-26T02:19:22.201Z,96460.70
2023-03-26T02:22:00.090Z,96459.08
2023-03-26T02:24:33.773Z,96466.27
2023-03-26T02:27:08.086Z,96467.77
2023-03-26T02:29:43.094Z,96470.16
2023-03-26T02:32:16.083Z,96477.48
2023-03-26T02:34:48.732Z,96473.21
2023-03-26T02:37:21.562Z,96474.55
2023-03-26T02:39:56.834Z,96474.33
2023-03-26T02:42:34.643Z,96474.55
2023-03-26T02:45:08.773Z,96479.02
2023-03-26T02:48:04.261Z,96480.73
2023-03-26T02:50:57.233Z,96474.79
2023-03-26T02:53:47.861Z,96481.11
2023-03-26T02:56:58.857Z,96480.45
2023-03-26T02:59:53.111Z,96480.45
2023-03-26T03:02:48.537Z,96481.11
2023-03-26T03:05:38.667Z,96486.52
2023-03-26T03:08:32.183Z,96487.64
2023-03-26T03:11:30.131Z,96482.23
2023-03-26T03:14:02.759Z,96483.11
2023-03-26T03:16:36.772Z,96479.98
2023-03-26T03:19:14.155Z,96480.42
2023-03-26T03:21:46.854Z,96477.21
2023-03-26T03:24:20.906Z,96478.45
2023-03-26T03:26:57.114Z,96476.77
2023-03-26T03:29:41.750Z,96478.90
2023-03-26T03:32:52.988Z,96479.46
2023-03-26T03:35:27.989Z,96484.23
2023-03-26T03:38:03.180Z,96487.64
2023-03-26T03:40:40.815Z,96490.59
2023-03-26T03:43:13.668Z,96493.31
2023-03-26T03:45:56.946Z,96492.95
2023-03-26T03:49:01.152Z,96490.36
2023-03-26T03:51:38.068Z,96492.61
2023-03-26T03:54:18.888Z,96492.45
2023-03-26T03:56:51.778Z,96491.83
2023-03-26T03:59:47.361Z,96488.88
2023-03-26T04:02:26.724Z,96495.66
2023-03-26T04:05:02.923Z,96490.06
2023-03-26T04:07:35.735Z,96487.27
2023-03-26T04:10:14.784Z,96487.41
2023-03-26T04:13:06.089Z,96489.81
2023-03-26T04:16:12.283Z,96483.84
2023-03-26T04:18:46.213Z,96468.55
2023-03-26T04:21:20.444Z,96452.70
2023-03-26T04:23:56.051Z,96453.64
2023-03-26T04:26:50.375Z,96466.15
2023-03-26T04:29:28.292Z,96457.98
2023-03-26T04:32:07.507Z,96457.67
2023-03-26T04:34:40.195Z,96461.40
2023-03-26T04:37:23.417Z,96463.71
2023-03-26T04:40:09.830Z,96460.77
2023-03-26T04:42:58.697Z,96454.63
2023-03-26T04:45:52.667Z,96454.05
2023-03-26T04:48:26.145Z,96451.74
2023-03-26T04:50:59.571Z,96452.92
2023-03-26T04:53:32.422Z,96451.75
2023-03-26T04:56:31.030Z,96452.88
2023-03-26T04:59:35.335Z,96456.02
2023-03-26T05:02:13.319Z,96450.48
2023-03-26T05:04:57.505Z,96454.15
2023-03-26T05:07:33.524Z,96455.27
2023-03-26T05:10:04.876Z,96452.75
2023-03-26T05:12:41.273Z,96449.02
2023-03-26T05:15:19.592Z,96451.70
2023-03-26T05:18:14.418Z,96451.27
2023-03-26T05:20:49.306Z,96449.20
2023-03-26T05:23:22.135Z,96451.52
2023-03-26T05:26:15.131Z,96454.13
2023-03-26T05:28:47.947Z,96449.83
2023-03-26T05:31:31.822Z,96450.91
2023-03-26T05:34:07.118Z,96451.40
2023-03-26T05:36:40.173Z,96459.25
2023-03-26T05:39:41.915Z,96462.38
2023-03-26T05:42:23.198Z,96464.83
2023-03-26T05:45:12.087Z,96464.39
2023-03-26T05:47:45.093Z,96466.23
2023-03-26T05:50:18.150Z,96470.20
2023-03-26T05:52:50.973Z,96474.73
2023-03-26T05:55:42.777Z,96480.98
2023-03-26T05:58:42.494Z,96479.08
2023-03-26T06:01:39.200Z,96486.55
2023-03-26T06:04:30.228Z,96484.73
2023-03-26T06:07:18.467Z,96483.89
2023-03-26T06:09:59.178Z,96478.58
2023-03-26T06:12:31.786Z,96476.96
2023-03-26T06:15:06.504Z,96474.17
2023-03-26T06:18:05.640Z,96482.12
2023-03-26T06:20:54.271Z,96477.67
2023-03-26T06:23:35.203Z,96476.55
2023-03-26T06:26:15.749Z,96479.89
2023-03-26T06:29:05.506Z,96476.48
2023-03-26T06:31:46.299Z,96475.90
2023-03-26T06:34:25.165Z,96471.24
2023-03-26T06:36:57.913Z,96472.81
2023-03-26T06:39:30.809Z,96468.45
2023-03-26T06:43:06.873Z,96467.05
2023-03-26T06:45:55.520Z,96464.20
2023-03-26T06:48:43.686Z,96462.95
2023-03-26T06:51:27.308Z,96460.20
2023-03-26T06:54:15.106Z,96460.06
2023-03-26T06:57:00.320Z,96455.34
2023-03-26T06:59:51.716Z,96458.42
2023-03-26T07:02:53.680Z,96460.20
2023-03-26T07:05:45.907Z,96460.80
2023-03-26T07:08:55.819Z,96461.34
2023-03-26T07:11:39.298Z,96457.59
2023-03-26T07:14:33.071Z,96458.80
2023-03-26T07:17:34.957Z,96456.34
2023-03-26T07:20:19.706Z,96452.57
2023-03-26T07:22:54.968Z,96450.04
2023-03-26T07:25:44.928Z,96449.88
2023-03-26T07:28:32.276Z,96445.48
2023-03-26T07:31:18.420Z,96445.22
2023-03-26T07:34:04.396Z,96447.77
2023-03-26T07:37:05.362Z,96445.83
2023-03-26T07:40:13.693Z,96446.90
2023-03-26T07:43:17.936Z,96446.65
2023-03-26T07:46:00.336Z,96448.81
2023-03-26T07:48:55.365Z,96441.46
2023-03-26T07:51:47.165Z,96441.51
2023-03-26T07:54:30.526Z,96445.27
2023-03-26T07:57:31.162Z,96440.17
2023-03-26T08:00:32.477Z,96439.87
2023-03-26T08:03:34.616Z,96437.94
2023-03-26T08:06:28.666Z,96443.04
2023-03-26T08:09:21.164Z,96443.17
2023-03-26T08:12:31.765Z,96439.97
2023-03-26T08:15:12.678Z,96435.17
2023-03-26T08:17:50.954Z,96436.12
2023-03-26T08:20:34.583Z,96438.44
2023-03-26T08:23:15.893Z,96440.14
2023-03-26T08:26:02.742Z,96446.20
2023-03-26T08:28:49.654Z,96442.64
2023-03-26T08:31:33.238Z,96444.64
2023-03-26T08:34:06.617Z,96439.17
2023-03-26T08:36:37.312Z,96438.73
2023-03-26T08:39:10.585Z,96443.80
2023-03-26T08:42:14.133Z,96446.02
2023-03-26T08:45:23.262Z,96443.69
2023-03-26T08:48:17.960Z,96435.59
2023-03-26T08:51:29.034Z,96437.21
2023-03-26T08:54:35.623Z,96431.15
2023-03-26T08:57:41.873Z,96435.46
2023-03-26T09:01:08.903Z,96428.58
2023-03-26T09:04:12.877Z,96425.19
2023-03-26T09:07:14.591Z,96422.94
2023-03-26T09:10:18.816Z,96422.95
2023-03-26T09:13:38.859Z,96426.60
2023-03-26T09:16:40.791Z,96426.16
2023-03-26T09:19:49.168Z,96421.90
2023-03-26T09:22:52.617Z,96425.65
2023-03-26T09:25:58.487Z,96430.73
2023-03-26T09:32:32.000Z,96418.41
2023-03-26T09:35:41.844Z,96416.69
2023-03-26T09:38:30.518Z,96417.88
2023-03-26T09:41:11.407Z,96411.60
2023-03-26T09:44:17.674Z,96404.83
2023-03-26T09:47:03.541Z,96407.41
2023-03-26T09:49:47.261Z,96408.83
2023-03-26T09:52:50.785Z,96404.98
2023-03-26T09:55:57.795Z,96404.90
2023-03-26T09:58:59.361Z,96410.98
2023-03-26T10:01:55.590Z,96412.71
2023-03-26T10:04:53.880Z,96409.13
2023-03-26T10:21:25.621Z,96397.98
2023-03-26T10:24:23.258Z,96391.37
2023-03-26T10:27:26.789Z,96390.66
2023-03-26T10:30:30.068Z,96390.08
2023-03-26T10:33:15.945Z,96388.04
2023-03-26T10:36:02.072Z,96390.69
2023-03-26T10:38:52.379Z,96389.02
2023-03-26T10:41:37.427Z,96387.42
2023-03-26T10:44:35.562Z,96384.06
2023-03-26T10:47:36.791Z,96387.97
2023-03-26T10:50:34.335Z,96383.98
2023-03-26T10:53:15.181Z,96385.20
2023-03-26T10:55:54.063Z,96390.31
2023-03-26T10:58:29.685Z,96383.17
2023-03-26T11:01:34.685Z,96386.20
2023-03-26T11:04:35.416Z,96388.11
2023-03-26T11:07:19.925Z,96381.86
2023-03-26T11:10:02.997Z,96380.05
2023-03-26T11:12:43.379Z,96383.87
2023-03-26T11:15:26.535Z,96383.73
2023-03-26T11:18:10.655Z,96376.48
2023-03-26T11:20:49.150Z,96378.58
2023-03-26T11:23:36.073Z,96377.10
2023-03-26T11:26:17.446Z,96378.96
2023-03-26T11:29:32.271Z,96383.32
2023-03-26T11:32:11.913Z,96380.04
2023-03-26T11:34:50.752Z,96378.52
2023-03-26T11:37:31.075Z,96380.78
2023-03-26T11:40:12.189Z,96378.94
2023-03-26T11:42:46.657Z,96374.08
2023-03-26T11:45:24.571Z,96376.49
2023-03-26T11:48:05.368Z,96375.17
2023-03-26T11:50:42.443Z,96376.63
2023-03-26T11:53:21.775Z,96379.08
2023-03-26T11:56:01.511Z,96377.79
2023-03-26T11:58:40.758Z,96378.08
2023-03-26T12:01:19.675Z,96377.86
2023-03-26T12:04:05.667Z,96368.73
2023-03-26T12:06:38.853Z,96361.34
2023-03-26T12:09:20.950Z,96357.89
2023-03-26T12:12:01.973Z,96353.52
2023-03-26T12:14:38.042Z,96350.59
2023-03-26T12:17:15.029Z,96346.77
2023-03-26T12:19:50.782Z,96343.49
2023-03-26T12:22:37.778Z,96337.94
2023-03-26T12:25:23.189Z,96332.09
2023-03-26T12:28:03.542Z,96324.90
2023-03-26T12:30:37.827Z,96323.39
2023-03-26T12:33:18.653Z,96321.85
2023-03-26T12:35:52.665Z,96323.22
2023-03-26T12:38:33.820Z,96321.38
2023-03-26T12:43:40.325Z,96318.24
2023-03-26T12:44:52.753Z,96318.35
2023-03-26T12:47:59.993Z,96312.19
2023-03-26T12:50:18.840Z,96316.44
2023-03-26T12:53:39.960Z,96307.63
2023-03-26T12:56:22.376Z,96303.42
2023-03-26T12:59:15.153Z,96300.96
2023-03-26T13:01:57.481Z,96300.80
2023-03-26T13:05:02.260Z,96299.09
2023-03-26T13:07:51.601Z,96292.77
2023-03-26T13:10:38.776Z,96292.65
2023-03-26T13:13:38.272Z,96291.57
2023-03-26T13:16:15.777Z,96288.86
2023-03-26T13:18:55.155Z,96286.54
2023-03-26T13:21:40.558Z,96285.80
2023-03-26T13:24:20.066Z,96286.35
2023-03-26T13:27:07.437Z,96282.27
2023-03-26T13:29:56.929Z,96277.79
2023-03-26T13:32:41.612Z,96276.33
2023-03-26T13:35:26.118Z,96273.16
2023-03-26T13:38:07.079Z,96269.89
2023-03-26T13:40:51.449Z,96265.20
2023-03-26T13:43:55.258Z,96263.30
2023-03-26T13:46:36.857Z,96257.34
2023-03-26T13:49:16.003Z,96259.50
2023-03-26T13:51:55.702Z,96258.14
2023-03-26T13:54:34.434Z,96253.67
2023-03-26T13:57:14.429Z,96251.96
2023-03-26T13:59:52.567Z,96250.11
2023-03-26T14:02:32.506Z,96244.52
2023-03-26T14:05:09.752Z,96241.34
2023-03-26T14:07:48.358Z,96239.04
2023-03-26T14:10:25.547Z,96242.48
2023-03-26T14:13:04.654Z,96240.48
2023-03-26T14:15:43.369Z,96242.73
2023-03-26T14:18:31.355Z,96239.88
2023-03-26T14:21:34.606Z,96238.17
2023-03-26T14:24:46.175Z,96235.30
2023-03-26T14:27:34.446Z,96234.05
2023-03-26T14:30:36.910Z,96231.83
2023-03-26T14:33:28.225Z,96233.36
2023-03-26T14:36:13.954Z,96237.66
2023-03-26T14:39:12.729Z,96232.48
2023-03-26T14:41:52.555Z,96233.11
2023-03-26T14:45:08.688Z,96231.55
2023-03-26T14:47:48.184Z,96235.89
2023-03-26T14:50:46.993Z,96236.15
2023-03-26T14:53:28.011Z,96234.36
2023-03-26T14:56:23.715Z,96236.77
2023-03-26T14:59:34.361Z,96238.73
2023-03-26T15:02:54.175Z,96236.72
2023-03-26T15:05:58.065Z,96235.05
2023-03-26T15:09:09.531Z,96237.64
2023-03-26T15:11:55.342Z,96239.23
2023-03-26T15:15:18.107Z,96238.57
2023-03-26T15:18:27.869Z,96239.39
2023-03-26T15:21:30.292Z,96237.64
2023-03-26T15:24:34.767Z,96238.25
2023-03-26T15:27:58.570Z,96236.06
2023-03-26T15:31:02.098Z,96236.64
2023-03-26T15:34:03.355Z,96231.83
2023-03-26T15:37:29.466Z,96228.98
2023-03-26T15:40:50.935Z,96223.54
2023-03-26T15:43:35.075Z,96220.50
2023-03-26T15:46:34.411Z,96214.92
2023-03-26T15:49:18.885Z,96214.14
2023-03-26T15:52:07.329Z,96216.30
2023-03-26T15:54:59.480Z,96216.17
2023-03-26T15:57:44.339Z,96214.34
2023-03-26T16:00:29.451Z,96211.77
2023-03-26T16:03:28.384Z,96214.68
2023-03-26T16:06:24.278Z,96216.17
2023-03-26T16:09:15.886Z,96209.98
2023-03-26T16:11:58.761Z,96206.87
2023-03-26T16:14:53.882Z,96207.39
2023-03-26T16:17:28.931Z,96207.88
2023-03-26T16:20:23.761Z,96206.41
2023-03-26T16:23:04.780Z,96208.94
2023-03-26T16:26:00.524Z,96209.75
2023-03-26T16:28:37.751Z,96208.19
2023-03-26T16:31:39.461Z,96211.92
2023-03-26T16:34:41.883Z,96214.37
2023-03-26T16:37:44.619Z,96217.20
2023-03-26T16:40:38.494Z,96224.24
2023-03-26T16:43:42.915Z,96219.65
2023-03-26T16:46:28.511Z,96215.48
2023-03-26T16:49:09.767Z,96209.60
2023-03-26T16:51:59.719Z,96203.42
2023-03-26T16:54:43.912Z,96205.61
2023-03-26T16:57:27.852Z,96202.76
2023-03-26T17:00:24.692Z,96206.02
2023-03-26T17:03:06.767Z,96212.31
2023-03-26T17:05:45.443Z,96219.34
2023-03-26T17:08:36.227Z,96221.91
2023-03-26T17:11:21.030Z,96211.11
2023-03-26T17:14:05.503Z,96200.38
2023-03-26T17:16:44.945Z,96198.51
2023-03-26T17:19:30.521Z,96202.86
2023-03-26T17:22:07.937Z,96205.86
2023-03-26T17:24:49.331Z,96208.09
2023-03-26T17:27:53.880Z,96208.40
2023-03-26T17:30:54.272Z,96207.73
2023-03-26T17:33:35.116Z,96210.41
2023-03-26T17:36:42.286Z,96211.77
2023-03-26T17:40:13.369Z,96209.52
2023-03-26T17:43:07.909Z,96206.01
2023-03-26T17:45:45.504Z,96203.14
2023-03-26T17:48:48.051Z,96204.20
2023-03-26T17:51:42.018Z,96205.29
2023-03-26T17:54:29.833Z,96210.80
2023-03-26T17:57:10.195Z,96212.10
2023-03-26T17:59:45.527Z,96210.59
2023-03-26T18:02:25.223Z,96211.80
2023-03-26T18:05:03.395Z,96211.47
2023-03-26T18:08:11.456Z,96208.13
2023-03-26T18:11:16.634Z,96203.60
2023-03-26T18:14:40.126Z,96202.42
2023-03-26T18:17:20.446Z,96198.77
2023-03-26T18:20:06.988Z,96203.29
2023-03-26T18:22:38.913Z,96206.98
2023-03-26T18:25:29.706Z,96206.92
2023-03-26T18:28:17.689Z,96203.94
2023-03-26T18:30:56.913Z,96201.73
2023-03-26T18:33:48.518Z,96195.88
2023-03-26T18:36:29.244Z,96195.84
2023-03-26T18:39:06.226Z,96195.40
2023-03-26T18:41:44.339Z,96190.08
2023-03-26T18:44:22.116Z,96190.13
2023-03-26T18:46:56.876Z,96191.14
2023-03-26T18:49:31.046Z,96189.66
2023-03-26T18:52:03.674Z,96187.15
2023-03-26T18:54:38.596Z,96187.31
2023-03-26T18:57:22.087Z,96186.49
2023-03-26T18:59:57.015Z,96188.80
2023-03-26T19:02:30.433Z,96191.45
2023-03-26T19:05:03.910Z,96188.44
2023-03-26T19:07:38.472Z,96186.23
2023-03-26T19:10:25.651Z,96181.95
2023-03-26T19:13:03.352Z,96181.47
2023-03-26T19:15:38.915Z,96181.84
2023-03-26T19:18:18.390Z,96179.98
2023-03-26T19:20:54.602Z,96178.19
2023-03-26T19:23:32.740Z,96178.86
2023-03-26T19:26:10.335Z,96180.90
2023-03-26T19:28:49.424Z,96176.55
2023-03-26T19:31:28.421Z,96174.82
2023-03-26T19:34:03.444Z,96172.23
2023-03-26T19:36:40.095Z,96166.59
2023-03-26T19:39:27.294Z,96162.15
2023-03-26T19:42:11.913Z,96161.36
2023-03-26T19:44:48.255Z,96157.31
2023-03-26T19:47:35.342Z,96151.39
2023-03-26T19:50:26.622Z,96156.53
2023-03-26T19:53:19.194Z,96150.67
2023-03-26T19:55:59.612Z,96149.54
2023-03-26T19:58:33.399Z,96148.59
2023-03-26T20:01:04.112Z,96145.66
2023-03-26T20:03:42.164Z,96142.95
2023-03-26T20:06:17.537Z,96136.92
2023-03-26T20:08:51.922Z,96134.46
2023-03-26T20:11:30.893Z,96133.03
2023-03-26T20:14:09.227Z,96131.38
2023-03-26T20:16:56.079Z,96128.20
2023-03-26T20:19:33.054Z,96126.91
2023-03-26T20:22:07.317Z,96129.27
2023-03-26T20:24:41.822Z,96129.23
2023-03-26T20:27:15.259Z,96130.60
2023-03-26T20:29:48.268Z,96126.47
2023-03-26T20:32:26.469Z,96129.77
2023-03-26T20:34:59.991Z,96129.02
2023-03-26T20:37:32.488Z,96131.65
2023-03-26T20:40:08.393Z,96127.77
2023-03-26T20:42:41.833Z,96128.94
2023-03-26T20:45:18.383Z,96126.69
2023-03-26T20:47:52.416Z,96126.47
2023-03-26T20:50:27.266Z,96129.15
2023-03-26T20:53:01.120Z,96123.37
2023-03-26T20:55:34.062Z,96120.73
2023-03-26T20:58:06.467Z,96113.96
2023-03-26T21:00:40.056Z,96110.68
2023-03-26T21:03:13.121Z,96108.48
2023-03-26T21:05:48.914Z,96107.50
2023-03-26T21:08:30.459Z,96104.07
2023-03-26T21:11:07.231Z,96102.20
2023-03-26T21:13:44.776Z,96097.15
2023-03-26T21:16:19.322Z,96093.03
2023-03-26T21:18:53.301Z,96087.23
2023-03-26T21:21:46.580Z,96087.92
2023-03-26T21:24:33.369Z,96084.06
2023-03-26T21:27:14.452Z,96085.77
2023-03-26T21:29:48.010Z,96084.87
2023-03-26T21:32:21.821Z,96079.46
2023-03-26T21:34:59.062Z,96079.27
2023-03-26T21:37:33.572Z,96075.00
2023-03-26T21:40:15.426Z,96074.91
2023-03-26T21:42:50.616Z,96073.36
2023-03-26T21:45:25.034Z,96072.36
2023-03-26T21:47:58.802Z,96074.67
2023-03-26T21:50:32.715Z,96072.55
2023-03-26T21:53:06.384Z,96070.29
2023-03-26T21:55:45.318Z,96068.46
2023-03-26T21:58:30.612Z,96065.80
2023-03-26T22:01:18.235Z,96063.27
2023-03-26T22:04:14.613Z,96062.84
2023-03-26T22:06:52.624Z,96057.79
2023-03-26T22:09:33.925Z,96055.56
2023-03-26T22:12:10.804Z,96058.46
2023-03-26T22:14:43.488Z,96057.45
2023-03-26T22:17:16.150Z,96057.70
2023-03-26T22:19:49.048Z,96054.71
2023-03-26T22:22:22.516Z,96050.33
2023-03-26T22:24:55.528Z,96045.63
2023-03-26T22:27:28.411Z,96049.39
2023-03-26T22:30:00.973Z,96050.46
2023-03-26T22:32:35.279Z,96051.03
2023-03-26T22:35:09.345Z,96049.00
2023-03-26T22:37:41.979Z,96045.95
2023-03-26T22:40:15.086Z,96049.48
2023-03-26T22:42:50.458Z,96054.92
2023-03-26T22:45:24.005Z,96055.98
2023-03-26T22:48:03.086Z,96052.52
2023-03-26T22:50:37.226Z,96056.45
2023-03-26T22:53:09.664Z,96057.97
2023-03-26T22:55:42.466Z,96054.60
2023-03-26T22:58:15.275Z,96056.98
2023-03-26T23:00:50.605Z,96052.89
2023-03-26T23:03:34.866Z,96048.14
2023-03-26T23:06:10.825Z,96047.16
2023-03-26T23:08:44.085Z,96042.22
2023-03-26T23:11:19.309Z,96037.81
2023-03-26T23:13:52.526Z,96032.81
2023-03-26T23:16:25.390Z,96031.77
2023-03-26T23:18:58.264Z,96030.84
2023-03-26T23:21:30.786Z,96033.94
2023-03-26T23:24:11.217Z,96031.84
2023-03-26T23:26:50.529Z,96027.07
2023-03-26T23:29:24.016Z,96022.43
2023-03-26T23:31:56.708Z,96021.81
2023-03-26T23:34:29.400Z,96017.01
2023-03-26T23:37:02.489Z,96011.91
2023-03-26T23:39:35.208Z,96005.58
2023-03-26T23:42:07.926Z,96006.70
2023-03-26T23:44:40.787Z,96007.09
2023-03-26T23:47:17.081Z,96005.19
2023-03-26T23:49:49.685Z,96002.65
2023-03-26T23:52:22.940Z,96001.63
2023-03-26T23:54:55.578Z,95996.77
2023-03-26T23:57:28.218Z,95994.11
